sensor_id;sensor_type;location;lat;lon;timestamp;P1;durP1;ratioP1;P2;durP2;ratioP2
22579;SDS011;11456;47.030;15.396;2023-08-12T00:00:54;5.95;;;3.38;;
22579;SDS011;11456;47.030;15.396;2023-08-12T00:03:21;5.63;;;3.08;;
22579;SDS011;11456;47.030;15.396;2023-08-12T00:05:48;5.63;;;3.00;;
22579;SDS011;11456;47.030;15.396;2023-08-12T00:08:15;7.05;;;3.28;;
22579;SDS011;11456;47.030;15.396;2023-08-12T00:10:41;5.97;;;2.95;;
22579;SDS011;11456;47.030;15.396;2023-08-12T00:13:08;6.00;;;3.08;;
22579;SDS011;11456;47.030;15.396;2023-08-12T00:15:35;4.43;;;3.00;;
22579;SDS011;11456;47.030;15.396;2023-08-12T00:18:01;5.80;;;2.92;;
22579;SDS011;11456;47.030;15.396;2023-08-12T00:20:30;4.18;;;2.60;;
22579;SDS011;11456;47.030;15.396;2023-08-12T00:22:57;4.10;;;2.58;;
22579;SDS011;11456;47.030;15.396;2023-08-12T00:25:24;4.63;;;3.05;;
22579;SDS011;11456;47.030;15.396;2023-08-12T00:27:50;3.63;;;2.70;;
22579;SDS011;11456;47.030;15.396;2023-08-12T00:30:17;5.95;;;2.97;;
22579;SDS011;11456;47.030;15.396;2023-08-12T00:32:43;5.47;;;3.20;;
22579;SDS011;11456;47.030;15.396;2023-08-12T00:35:10;3.38;;;2.90;;
22579;SDS011;11456;47.030;15.396;2023-08-12T00:37:37;5.30;;;2.85;;
22579;SDS011;11456;47.030;15.396;2023-08-12T00:40:04;6.57;;;3.38;;
22579;SDS011;11456;47.030;15.396;2023-08-12T00:42:32;3.58;;;2.88;;
22579;SDS011;11456;47.030;15.396;2023-08-12T00:44:59;4.65;;;3.47;;
22579;SDS011;11456;47.030;15.396;2023-08-12T00:47:27;4.75;;;3.03;;
22579;SDS011;11456;47.030;15.396;2023-08-12T00:49:57;6.82;;;3.22;;
22579;SDS011;11456;47.030;15.396;2023-08-12T00:52:24;6.43;;;3.22;;
22579;SDS011;11456;47.030;15.396;2023-08-12T00:54:52;4.22;;;3.10;;
22579;SDS011;11456;47.030;15.396;2023-08-12T00:57:19;4.18;;;3.10;;
22579;SDS011;11456;47.030;15.396;2023-08-12T00:59:47;9.05;;;3.70;;
22579;SDS011;11456;47.030;15.396;2023-08-12T01:02:15;6.55;;;3.10;;
22579;SDS011;11456;47.030;15.396;2023-08-12T01:04:42;9.10;;;3.35;;
22579;SDS011;11456;47.030;15.396;2023-08-12T01:07:08;8.00;;;3.10;;
22579;SDS011;11456;47.030;15.396;2023-08-12T01:09:36;3.53;;;3.03;;
22579;SDS011;11456;47.030;15.396;2023-08-12T01:15:15;4.30;;;3.10;;
22579;SDS011;11456;47.030;15.396;2023-08-12T01:17:48;5.65;;;3.10;;
22579;SDS011;11456;47.030;15.396;2023-08-12T01:20:21;4.43;;;3.13;;
22579;SDS011;11456;47.030;15.396;2023-08-12T01:22:59;5.18;;;3.22;;
22579;SDS011;11456;47.030;15.396;2023-08-12T01:25:39;9.32;;;3.08;;
22579;SDS011;11456;47.030;15.396;2023-08-12T01:28:07;6.93;;;3.30;;
22579;SDS011;11456;47.030;15.396;2023-08-12T01:30:36;5.97;;;2.95;;
22579;SDS011;11456;47.030;15.396;2023-08-12T01:33:27;4.18;;;2.97;;
22579;SDS011;11456;47.030;15.396;2023-08-12T01:36:01;6.40;;;3.40;;
22579;SDS011;11456;47.030;15.396;2023-08-12T01:38:40;5.38;;;3.08;;
22579;SDS011;11456;47.030;15.396;2023-08-12T01:41:09;7.40;;;3.10;;
22579;SDS011;11456;47.030;15.396;2023-08-12T01:43:38;3.80;;;2.80;;
22579;SDS011;11456;47.030;15.396;2023-08-12T01:46:06;5.00;;;3.08;;
22579;SDS011;11456;47.030;15.396;2023-08-12T01:48:32;5.07;;;3.00;;
22579;SDS011;11456;47.030;15.396;2023-08-12T01:51:00;10.63;;;3.00;;
22579;SDS011;11456;47.030;15.396;2023-08-12T01:53:28;5.07;;;2.72;;
22579;SDS011;11456;47.030;15.396;2023-08-12T01:55:54;4.25;;;3.22;;
22579;SDS011;11456;47.030;15.396;2023-08-12T01:58:21;4.78;;;3.05;;
22579;SDS011;11456;47.030;15.396;2023-08-12T02:00:48;8.18;;;3.03;;
22579;SDS011;11456;47.030;15.396;2023-08-12T02:03:15;3.88;;;2.55;;
22579;SDS011;11456;47.030;15.396;2023-08-12T02:05:41;5.47;;;3.40;;
22579;SDS011;11456;47.030;15.396;2023-08-12T02:08:09;4.03;;;2.90;;
22579;SDS011;11456;47.030;15.396;2023-08-12T02:10:36;3.60;;;3.00;;
22579;SDS011;11456;47.030;15.396;2023-08-12T02:13:03;8.23;;;3.03;;
22579;SDS011;11456;47.030;15.396;2023-08-12T02:15:30;5.00;;;3.08;;
22579;SDS011;11456;47.030;15.396;2023-08-12T02:17:57;3.85;;;2.92;;
22579;SDS011;11456;47.030;15.396;2023-08-12T02:20:25;5.40;;;3.10;;
22579;SDS011;11456;47.030;15.396;2023-08-12T02:22:53;5.03;;;3.15;;
22579;SDS011;11456;47.030;15.396;2023-08-12T02:25:19;7.10;;;3.05;;
22579;SDS011;11456;47.030;15.396;2023-08-12T02:27:46;5.55;;;3.13;;
22579;SDS011;11456;47.030;15.396;2023-08-12T02:30:12;5.38;;;3.08;;
22579;SDS011;11456;47.030;15.396;2023-08-12T02:32:39;5.20;;;2.83;;
22579;SDS011;11456;47.030;15.396;2023-08-12T02:35:09;5.18;;;2.90;;
22579;SDS011;11456;47.030;15.396;2023-08-12T02:37:37;3.25;;;2.65;;
22579;SDS011;11456;47.030;15.396;2023-08-12T02:40:04;4.75;;;2.92;;
22579;SDS011;11456;47.030;15.396;2023-08-12T02:42:31;5.45;;;2.80;;
22579;SDS011;11456;47.030;15.396;2023-08-12T02:44:58;6.15;;;2.83;;
22579;SDS011;11456;47.030;15.396;2023-08-12T02:47:26;4.75;;;3.20;;
22579;SDS011;11456;47.030;15.396;2023-08-12T02:49:54;6.22;;;3.22;;
22579;SDS011;11456;47.030;15.396;2023-08-12T02:52:20;5.00;;;3.25;;
22579;SDS011;11456;47.030;15.396;2023-08-12T02:54:47;5.50;;;3.35;;
22579;SDS011;11456;47.030;15.396;2023-08-12T02:57:14;7.03;;;3.25;;
22579;SDS011;11456;47.030;15.396;2023-08-12T02:59:41;5.28;;;3.45;;
22579;SDS011;11456;47.030;15.396;2023-08-12T03:02:07;5.43;;;3.30;;
22579;SDS011;11456;47.030;15.396;2023-08-12T03:04:34;5.60;;;3.47;;
22579;SDS011;11456;47.030;15.396;2023-08-12T03:07:01;5.05;;;3.17;;
22579;SDS011;11456;47.030;15.396;2023-08-12T03:09:29;7.50;;;3.30;;
22579;SDS011;11456;47.030;15.396;2023-08-12T03:11:56;6.28;;;3.72;;
22579;SDS011;11456;47.030;15.396;2023-08-12T03:14:22;9.15;;;3.42;;
22579;SDS011;11456;47.030;15.396;2023-08-12T03:16:49;4.15;;;3.17;;
22579;SDS011;11456;47.030;15.396;2023-08-12T03:19:16;5.03;;;3.15;;
22579;SDS011;11456;47.030;15.396;2023-08-12T03:21:42;3.78;;;3.17;;
22579;SDS011;11456;47.030;15.396;2023-08-12T03:24:10;5.40;;;3.60;;
22579;SDS011;11456;47.030;15.396;2023-08-12T03:26:37;4.38;;;3.55;;
22579;SDS011;11456;47.030;15.396;2023-08-12T03:29:05;6.57;;;3.47;;
22579;SDS011;11456;47.030;15.396;2023-08-12T03:31:34;5.30;;;3.53;;
22579;SDS011;11456;47.030;15.396;2023-08-12T03:34:01;5.28;;;3.70;;
22579;SDS011;11456;47.030;15.396;2023-08-12T03:36:29;4.40;;;3.30;;
22579;SDS011;11456;47.030;15.396;2023-08-12T03:38:56;7.05;;;3.50;;
22579;SDS011;11456;47.030;15.396;2023-08-12T03:41:25;4.80;;;3.58;;
22579;SDS011;11456;47.030;15.396;2023-08-12T03:43:55;7.90;;;3.80;;
22579;SDS011;11456;47.030;15.396;2023-08-12T03:46:22;7.80;;;3.50;;
22579;SDS011;11456;47.030;15.396;2023-08-12T03:48:50;5.05;;;3.35;;
22579;SDS011;11456;47.030;15.396;2023-08-12T03:51:17;5.60;;;3.80;;
22579;SDS011;11456;47.030;15.396;2023-08-12T03:53:43;7.50;;;3.45;;
22579;SDS011;11456;47.030;15.396;2023-08-12T03:56:10;7.88;;;3.58;;
22579;SDS011;11456;47.030;15.396;2023-08-12T03:58:42;8.65;;;3.88;;
22579;SDS011;11456;47.030;15.396;2023-08-12T04:01:08;5.55;;;3.45;;
22579;SDS011;11456;47.030;15.396;2023-08-12T04:03:35;4.90;;;3.50;;
22579;SDS011;11456;47.030;15.396;2023-08-12T04:06:02;8.50;;;3.45;;
22579;SDS011;11456;47.030;15.396;2023-08-12T04:08:29;7.10;;;3.83;;
22579;SDS011;11456;47.030;15.396;2023-08-12T04:10:58;7.97;;;3.83;;
22579;SDS011;11456;47.030;15.396;2023-08-12T04:13:25;6.65;;;3.60;;
22579;SDS011;11456;47.030;15.396;2023-08-12T04:15:53;5.70;;;3.60;;
22579;SDS011;11456;47.030;15.396;2023-08-12T04:18:20;4.45;;;3.58;;
22579;SDS011;11456;47.030;15.396;2023-08-12T04:20:48;4.82;;;3.72;;
22579;SDS011;11456;47.030;15.396;2023-08-12T04:23:16;6.38;;;3.60;;
22579;SDS011;11456;47.030;15.396;2023-08-12T04:25:44;7.22;;;3.90;;
22579;SDS011;11456;47.030;15.396;2023-08-12T04:28:13;6.15;;;3.40;;
22579;SDS011;11456;47.030;15.396;2023-08-12T04:30:44;6.03;;;3.67;;
22579;SDS011;11456;47.030;15.396;2023-08-12T04:33:14;7.18;;;3.60;;
22579;SDS011;11456;47.030;15.396;2023-08-12T04:35:41;6.45;;;3.80;;
22579;SDS011;11456;47.030;15.396;2023-08-12T04:38:08;7.63;;;4.35;;
22579;SDS011;11456;47.030;15.396;2023-08-12T04:40:40;7.43;;;4.30;;
22579;SDS011;11456;47.030;15.396;2023-08-12T04:43:08;8.45;;;3.88;;
22579;SDS011;11456;47.030;15.396;2023-08-12T04:45:36;7.35;;;4.30;;
22579;SDS011;11456;47.030;15.396;2023-08-12T04:48:03;6.82;;;4.10;;
22579;SDS011;11456;47.030;15.396;2023-08-12T04:50:32;5.35;;;4.10;;
22579;SDS011;11456;47.030;15.396;2023-08-12T04:53:01;7.00;;;3.95;;
22579;SDS011;11456;47.030;15.396;2023-08-12T04:55:28;7.38;;;4.10;;
22579;SDS011;11456;47.030;15.396;2023-08-12T04:57:54;8.40;;;4.50;;
22579;SDS011;11456;47.030;15.396;2023-08-12T05:00:22;5.47;;;4.57;;
22579;SDS011;11456;47.030;15.396;2023-08-12T05:02:49;9.13;;;5.22;;
22579;SDS011;11456;47.030;15.396;2023-08-12T05:05:16;10.65;;;4.28;;
22579;SDS011;11456;47.030;15.396;2023-08-12T05:07:43;11.32;;;4.80;;
22579;SDS011;11456;47.030;15.396;2023-08-12T05:10:11;7.72;;;4.45;;
22579;SDS011;11456;47.030;15.396;2023-08-12T05:12:38;7.05;;;4.47;;
22579;SDS011;11456;47.030;15.396;2023-08-12T05:15:05;8.27;;;4.88;;
22579;SDS011;11456;47.030;15.396;2023-08-12T05:17:32;10.38;;;4.65;;
22579;SDS011;11456;47.030;15.396;2023-08-12T05:19:58;9.18;;;5.50;;
22579;SDS011;11456;47.030;15.396;2023-08-12T05:22:25;8.18;;;4.70;;
22579;SDS011;11456;47.030;15.396;2023-08-12T05:24:52;7.80;;;4.85;;
22579;SDS011;11456;47.030;15.396;2023-08-12T05:27:18;6.70;;;4.85;;
22579;SDS011;11456;47.030;15.396;2023-08-12T05:29:45;10.95;;;5.20;;
22579;SDS011;11456;47.030;15.396;2023-08-12T05:32:12;7.75;;;5.05;;
22579;SDS011;11456;47.030;15.396;2023-08-12T05:34:39;7.85;;;5.28;;
22579;SDS011;11456;47.030;15.396;2023-08-12T05:37:05;7.05;;;4.85;;
22579;SDS011;11456;47.030;15.396;2023-08-12T05:39:32;11.10;;;5.43;;
22579;SDS011;11456;47.030;15.396;2023-08-12T05:41:59;9.75;;;4.90;;
22579;SDS011;11456;47.030;15.396;2023-08-12T05:44:25;7.35;;;5.28;;
22579;SDS011;11456;47.030;15.396;2023-08-12T05:46:53;10.38;;;4.85;;
22579;SDS011;11456;47.030;15.396;2023-08-12T05:49:20;7.25;;;4.43;;
22579;SDS011;11456;47.030;15.396;2023-08-12T05:51:46;7.60;;;4.80;;
22579;SDS011;11456;47.030;15.396;2023-08-12T05:54:13;7.78;;;4.57;;
22579;SDS011;11456;47.030;15.396;2023-08-12T05:56:40;11.93;;;5.10;;
22579;SDS011;11456;47.030;15.396;2023-08-12T05:59:06;6.90;;;4.70;;
22579;SDS011;11456;47.030;15.396;2023-08-12T06:01:33;8.25;;;4.50;;
22579;SDS011;11456;47.030;15.396;2023-08-12T06:04:00;10.50;;;5.28;;
22579;SDS011;11456;47.030;15.396;2023-08-12T06:06:26;7.32;;;4.45;;
22579;SDS011;11456;47.030;15.396;2023-08-12T06:08:53;5.97;;;4.70;;
22579;SDS011;11456;47.030;15.396;2023-08-12T06:11:20;7.97;;;4.63;;
22579;SDS011;11456;47.030;15.396;2023-08-12T06:13:47;9.70;;;5.18;;
22579;SDS011;11456;47.030;15.396;2023-08-12T06:16:13;10.80;;;5.15;;
22579;SDS011;11456;47.030;15.396;2023-08-12T06:18:40;12.35;;;5.10;;
22579;SDS011;11456;47.030;15.396;2023-08-12T06:21:07;8.20;;;4.90;;
22579;SDS011;11456;47.030;15.396;2023-08-12T06:23:33;7.60;;;4.80;;
22579;SDS011;11456;47.030;15.396;2023-08-12T06:26:00;12.18;;;5.50;;
22579;SDS011;11456;47.030;15.396;2023-08-12T06:28:27;7.32;;;4.60;;
22579;SDS011;11456;47.030;15.396;2023-08-12T06:30:54;11.85;;;4.63;;
22579;SDS011;11456;47.030;15.396;2023-08-12T06:33:21;11.73;;;4.72;;
22579;SDS011;11456;47.030;15.396;2023-08-12T06:35:47;7.88;;;4.43;;
22579;SDS011;11456;47.030;15.396;2023-08-12T06:38:16;10.10;;;4.20;;
22579;SDS011;11456;47.030;15.396;2023-08-12T06:40:43;9.93;;;4.60;;
22579;SDS011;11456;47.030;15.396;2023-08-12T06:43:10;8.18;;;4.10;;
22579;SDS011;11456;47.030;15.396;2023-08-12T06:45:37;8.10;;;4.13;;
22579;SDS011;11456;47.030;15.396;2023-08-12T06:48:03;9.43;;;4.10;;
22579;SDS011;11456;47.030;15.396;2023-08-12T06:50:30;6.70;;;4.00;;
22579;SDS011;11456;47.030;15.396;2023-08-12T06:52:59;9.98;;;4.20;;
22579;SDS011;11456;47.030;15.396;2023-08-12T06:55:26;6.15;;;3.78;;
22579;SDS011;11456;47.030;15.396;2023-08-12T06:57:52;11.75;;;3.97;;
22579;SDS011;11456;47.030;15.396;2023-08-12T07:00:19;6.05;;;3.97;;
22579;SDS011;11456;47.030;15.396;2023-08-12T07:02:46;5.68;;;3.85;;
22579;SDS011;11456;47.030;15.396;2023-08-12T07:05:13;7.45;;;3.88;;
22579;SDS011;11456;47.030;15.396;2023-08-12T07:07:40;8.27;;;3.50;;
22579;SDS011;11456;47.030;15.396;2023-08-12T07:10:06;9.25;;;3.70;;
22579;SDS011;11456;47.030;15.396;2023-08-12T07:12:33;8.02;;;4.22;;
22579;SDS011;11456;47.030;15.396;2023-08-12T07:15:01;10.45;;;3.97;;
22579;SDS011;11456;47.030;15.396;2023-08-12T07:17:28;8.90;;;3.60;;
22579;SDS011;11456;47.030;15.396;2023-08-12T07:19:55;6.30;;;3.60;;
22579;SDS011;11456;47.030;15.396;2023-08-12T07:22:21;7.15;;;3.70;;
22579;SDS011;11456;47.030;15.396;2023-08-12T07:24:48;10.48;;;4.18;;
22579;SDS011;11456;47.030;15.396;2023-08-12T07:27:15;7.47;;;3.90;;
22579;SDS011;11456;47.030;15.396;2023-08-12T07:29:41;8.27;;;3.70;;
22579;SDS011;11456;47.030;15.396;2023-08-12T07:32:08;10.48;;;3.47;;
22579;SDS011;11456;47.030;15.396;2023-08-12T07:34:35;7.80;;;3.92;;
22579;SDS011;11456;47.030;15.396;2023-08-12T07:37:02;13.57;;;3.67;;
22579;SDS011;11456;47.030;15.396;2023-08-12T07:39:28;6.78;;;3.60;;
22579;SDS011;11456;47.030;15.396;2023-08-12T07:41:55;5.63;;;3.30;;
22579;SDS011;11456;47.030;15.396;2023-08-12T07:44:22;9.60;;;3.63;;
22579;SDS011;11456;47.030;15.396;2023-08-12T07:46:48;7.40;;;3.35;;
22579;SDS011;11456;47.030;15.396;2023-08-12T07:49:15;6.40;;;3.30;;
22579;SDS011;11456;47.030;15.396;2023-08-12T07:51:42;4.90;;;3.13;;
22579;SDS011;11456;47.030;15.396;2023-08-12T07:54:09;9.10;;;3.25;;
22579;SDS011;11456;47.030;15.396;2023-08-12T07:56:36;8.18;;;3.35;;
22579;SDS011;11456;47.030;15.396;2023-08-12T07:59:03;4.18;;;2.70;;
22579;SDS011;11456;47.030;15.396;2023-08-12T08:01:30;3.45;;;2.50;;
22579;SDS011;11456;47.030;15.396;2023-08-12T08:03:57;6.20;;;3.00;;
22579;SDS011;11456;47.030;15.396;2023-08-12T08:06:23;6.78;;;3.05;;
22579;SDS011;11456;47.030;15.396;2023-08-12T08:08:50;8.73;;;2.90;;
22579;SDS011;11456;47.030;15.396;2023-08-12T08:11:17;3.92;;;3.25;;
22579;SDS011;11456;47.030;15.396;2023-08-12T08:13:43;5.55;;;2.72;;
22579;SDS011;11456;47.030;15.396;2023-08-12T08:16:10;5.60;;;3.00;;
22579;SDS011;11456;47.030;15.396;2023-08-12T08:18:37;10.90;;;3.30;;
22579;SDS011;11456;47.030;15.396;2023-08-12T08:21:04;7.90;;;2.88;;
22579;SDS011;11456;47.030;15.396;2023-08-12T08:23:31;7.90;;;2.97;;
22579;SDS011;11456;47.030;15.396;2023-08-12T08:25:58;5.40;;;2.50;;
22579;SDS011;11456;47.030;15.396;2023-08-12T08:28:25;4.60;;;2.70;;
22579;SDS011;11456;47.030;15.396;2023-08-12T08:30:51;4.72;;;2.60;;
22579;SDS011;11456;47.030;15.396;2023-08-12T08:33:18;3.95;;;2.83;;
22579;SDS011;11456;47.030;15.396;2023-08-12T08:35:45;6.75;;;2.97;;
22579;SDS011;11456;47.030;15.396;2023-08-12T08:38:11;7.00;;;2.67;;
22579;SDS011;11456;47.030;15.396;2023-08-12T08:40:38;11.63;;;3.40;;
22579;SDS011;11456;47.030;15.396;2023-08-12T08:43:05;5.32;;;2.90;;
22579;SDS011;11456;47.030;15.396;2023-08-12T08:45:34;4.75;;;2.47;;
22579;SDS011;11456;47.030;15.396;2023-08-12T08:48:01;5.35;;;2.20;;
22579;SDS011;11456;47.030;15.396;2023-08-12T08:50:29;5.10;;;2.80;;
22579;SDS011;11456;47.030;15.396;2023-08-12T08:52:57;5.65;;;2.72;;
22579;SDS011;11456;47.030;15.396;2023-08-12T08:55:24;14.13;;;3.20;;
22579;SDS011;11456;47.030;15.396;2023-08-12T08:57:51;4.50;;;2.78;;
22579;SDS011;11456;47.030;15.396;2023-08-12T09:00:26;5.63;;;2.80;;
22579;SDS011;11456;47.030;15.396;2023-08-12T09:02:54;3.95;;;2.65;;
22579;SDS011;11456;47.030;15.396;2023-08-12T09:05:23;7.95;;;2.80;;
22579;SDS011;11456;47.030;15.396;2023-08-12T09:07:52;5.68;;;2.80;;
22579;SDS011;11456;47.030;15.396;2023-08-12T09:10:21;4.47;;;2.53;;
22579;SDS011;11456;47.030;15.396;2023-08-12T09:15:23;2.65;;;2.25;;
22579;SDS011;11456;47.030;15.396;2023-08-12T09:17:50;5.95;;;2.83;;
22579;SDS011;11456;47.030;15.396;2023-08-12T09:20:17;6.70;;;2.20;;
22579;SDS011;11456;47.030;15.396;2023-08-12T09:22:44;5.18;;;2.42;;
22579;SDS011;11456;47.030;15.396;2023-08-12T09:25:10;4.10;;;2.25;;
22579;SDS011;11456;47.030;15.396;2023-08-12T09:27:37;8.48;;;2.83;;
22579;SDS011;11456;47.030;15.396;2023-08-12T09:30:04;4.22;;;2.72;;
22579;SDS011;11456;47.030;15.396;2023-08-12T09:32:32;2.90;;;2.30;;
22579;SDS011;11456;47.030;15.396;2023-08-12T09:35:01;2.47;;;2.20;;
22579;SDS011;11456;47.030;15.396;2023-08-12T09:37:29;5.05;;;2.20;;
22579;SDS011;11456;47.030;15.396;2023-08-12T09:39:56;5.28;;;2.22;;
22579;SDS011;11456;47.030;15.396;2023-08-12T09:42:23;4.50;;;2.58;;
22579;SDS011;11456;47.030;15.396;2023-08-12T09:44:50;4.35;;;2.15;;
22579;SDS011;11456;47.030;15.396;2023-08-12T09:47:17;5.53;;;2.15;;
22579;SDS011;11456;47.030;15.396;2023-08-12T09:49:45;6.68;;;2.38;;
22579;SDS011;11456;47.030;15.396;2023-08-12T09:52:12;6.10;;;2.70;;
22579;SDS011;11456;47.030;15.396;2023-08-12T09:54:40;7.00;;;2.70;;
22579;SDS011;11456;47.030;15.396;2023-08-12T09:57:08;4.43;;;2.40;;
22579;SDS011;11456;47.030;15.396;2023-08-12T09:59:37;3.33;;;2.30;;
22579;SDS011;11456;47.030;15.396;2023-08-12T10:02:07;4.68;;;2.72;;
22579;SDS011;11456;47.030;15.396;2023-08-12T10:04:45;5.25;;;3.05;;
22579;SDS011;11456;47.030;15.396;2023-08-12T10:07:12;5.82;;;2.88;;
22579;SDS011;11456;47.030;15.396;2023-08-12T10:09:40;6.15;;;2.60;;
22579;SDS011;11456;47.030;15.396;2023-08-12T10:12:08;5.82;;;2.88;;
22579;SDS011;11456;47.030;15.396;2023-08-12T10:14:36;4.68;;;2.50;;
22579;SDS011;11456;47.030;15.396;2023-08-12T10:17:04;5.30;;;3.05;;
22579;SDS011;11456;47.030;15.396;2023-08-12T10:19:32;5.35;;;2.47;;
22579;SDS011;11456;47.030;15.396;2023-08-12T10:22:00;5.60;;;2.60;;
22579;SDS011;11456;47.030;15.396;2023-08-12T10:24:30;4.28;;;2.63;;
22579;SDS011;11456;47.030;15.396;2023-08-12T10:26:57;4.07;;;2.30;;
22579;SDS011;11456;47.030;15.396;2023-08-12T10:29:24;3.50;;;2.45;;
22579;SDS011;11456;47.030;15.396;2023-08-12T10:31:51;3.17;;;2.50;;
22579;SDS011;11456;47.030;15.396;2023-08-12T10:34:19;5.13;;;2.33;;
22579;SDS011;11456;47.030;15.396;2023-08-12T10:36:46;2.95;;;2.47;;
22579;SDS011;11456;47.030;15.396;2023-08-12T10:39:27;6.03;;;2.22;;
22579;SDS011;11456;47.030;15.396;2023-08-12T10:41:57;3.55;;;2.40;;
22579;SDS011;11456;47.030;15.396;2023-08-12T10:44:38;5.82;;;2.83;;
22579;SDS011;11456;47.030;15.396;2023-08-12T10:47:10;7.13;;;2.83;;
22579;SDS011;11456;47.030;15.396;2023-08-12T10:49:38;2.85;;;2.45;;
22579;SDS011;11456;47.030;15.396;2023-08-12T10:52:19;8.97;;;2.57;;
22579;SDS011;11456;47.030;15.396;2023-08-12T10:54:53;6.07;;;2.47;;
22579;SDS011;11456;47.030;15.396;2023-08-12T10:57:38;5.22;;;2.30;;
22579;SDS011;11456;47.030;15.396;2023-08-12T11:00:06;2.70;;;2.40;;
22579;SDS011;11456;47.030;15.396;2023-08-12T11:02:37;7.55;;;2.50;;
22579;SDS011;11456;47.030;15.396;2023-08-12T11:05:07;3.78;;;2.10;;
22579;SDS011;11456;47.030;15.396;2023-08-12T11:07:39;5.18;;;2.25;;
22579;SDS011;11456;47.030;15.396;2023-08-12T11:10:12;4.95;;;2.30;;
22579;SDS011;11456;47.030;15.396;2023-08-12T11:13:04;4.38;;;2.35;;
22579;SDS011;11456;47.030;15.396;2023-08-12T11:18:04;2.33;;;2.13;;
22579;SDS011;11456;47.030;15.396;2023-08-12T11:20:31;6.45;;;2.83;;
22579;SDS011;11456;47.030;15.396;2023-08-12T11:23:00;5.43;;;2.30;;
22579;SDS011;11456;47.030;15.396;2023-08-12T11:25:30;5.32;;;2.30;;
22579;SDS011;11456;47.030;15.396;2023-08-12T11:27:58;4.68;;;2.17;;
22579;SDS011;11456;47.030;15.396;2023-08-12T11:30:25;8.10;;;2.38;;
22579;SDS011;11456;47.030;15.396;2023-08-12T11:32:55;3.00;;;2.13;;
22579;SDS011;11456;47.030;15.396;2023-08-12T11:35:23;5.80;;;2.30;;
22579;SDS011;11456;47.030;15.396;2023-08-12T11:37:56;5.07;;;2.10;;
22579;SDS011;11456;47.030;15.396;2023-08-12T11:40:25;2.97;;;2.38;;
22579;SDS011;11456;47.030;15.396;2023-08-12T11:42:53;2.78;;;2.20;;
22579;SDS011;11456;47.030;15.396;2023-08-12T11:45:21;3.50;;;2.38;;
22579;SDS011;11456;47.030;15.396;2023-08-12T11:47:49;3.33;;;2.50;;
22579;SDS011;11456;47.030;15.396;2023-08-12T11:50:21;6.60;;;2.45;;
22579;SDS011;11456;47.030;15.396;2023-08-12T11:52:52;3.72;;;2.05;;
22579;SDS011;11456;47.030;15.396;2023-08-12T11:55:20;3.38;;;2.00;;
22579;SDS011;11456;47.030;15.396;2023-08-12T11:57:47;4.15;;;2.05;;
22579;SDS011;11456;47.030;15.396;2023-08-12T12:00:14;5.45;;;2.00;;
22579;SDS011;11456;47.030;15.396;2023-08-12T12:02:50;4.45;;;2.13;;
22579;SDS011;11456;47.030;15.396;2023-08-12T12:05:21;4.30;;;2.00;;
22579;SDS011;11456;47.030;15.396;2023-08-12T12:07:52;2.70;;;2.05;;
22579;SDS011;11456;47.030;15.396;2023-08-12T12:10:20;3.75;;;2.10;;
22579;SDS011;11456;47.030;15.396;2023-08-12T12:12:54;5.53;;;2.10;;
22579;SDS011;11456;47.030;15.396;2023-08-12T12:15:21;4.43;;;1.98;;
22579;SDS011;11456;47.030;15.396;2023-08-12T12:17:51;3.03;;;2.10;;
22579;SDS011;11456;47.030;15.396;2023-08-12T12:20:18;2.58;;;1.90;;
22579;SDS011;11456;47.030;15.396;2023-08-12T12:22:46;3.20;;;2.10;;
22579;SDS011;11456;47.030;15.396;2023-08-12T12:25:14;4.22;;;2.20;;
22579;SDS011;11456;47.030;15.396;2023-08-12T12:27:43;2.42;;;1.90;;
22579;SDS011;11456;47.030;15.396;2023-08-12T12:30:12;5.40;;;2.10;;
22579;SDS011;11456;47.030;15.396;2023-08-12T12:32:40;8.00;;;2.03;;
22579;SDS011;11456;47.030;15.396;2023-08-12T12:35:07;8.32;;;2.00;;
22579;SDS011;11456;47.030;15.396;2023-08-12T12:37:34;2.55;;;2.00;;
22579;SDS011;11456;47.030;15.396;2023-08-12T12:40:03;4.13;;;2.17;;
22579;SDS011;11456;47.030;15.396;2023-08-12T12:42:32;3.25;;;2.17;;
22579;SDS011;11456;47.030;15.396;2023-08-12T12:44:58;3.50;;;2.15;;
22579;SDS011;11456;47.030;15.396;2023-08-12T12:47:25;4.65;;;2.13;;
22579;SDS011;11456;47.030;15.396;2023-08-12T12:49:52;4.28;;;1.90;;
22579;SDS011;11456;47.030;15.396;2023-08-12T12:52:19;2.90;;;1.98;;
22579;SDS011;11456;47.030;15.396;2023-08-12T12:54:46;4.43;;;1.80;;
22579;SDS011;11456;47.030;15.396;2023-08-12T12:57:12;2.65;;;1.95;;
22579;SDS011;11456;47.030;15.396;2023-08-12T12:59:39;4.13;;;1.80;;
22579;SDS011;11456;47.030;15.396;2023-08-12T13:02:06;5.22;;;2.40;;
22579;SDS011;11456;47.030;15.396;2023-08-12T13:04:33;3.72;;;2.03;;
22579;SDS011;11456;47.030;15.396;2023-08-12T13:06:59;2.75;;;2.03;;
22579;SDS011;11456;47.030;15.396;2023-08-12T13:09:26;2.90;;;1.92;;
22579;SDS011;11456;47.030;15.396;2023-08-12T13:11:53;3.92;;;2.30;;
22579;SDS011;11456;47.030;15.396;2023-08-12T13:14:22;3.20;;;2.10;;
22579;SDS011;11456;47.030;15.396;2023-08-12T13:16:50;3.33;;;2.08;;
22579;SDS011;11456;47.030;15.396;2023-08-12T13:19:16;4.07;;;2.03;;
22579;SDS011;11456;47.030;15.396;2023-08-12T13:21:43;2.55;;;2.00;;
22579;SDS011;11456;47.030;15.396;2023-08-12T13:24:10;3.47;;;2.20;;
22579;SDS011;11456;47.030;15.396;2023-08-12T13:26:36;3.67;;;2.30;;
22579;SDS011;11456;47.030;15.396;2023-08-12T13:29:03;3.53;;;2.00;;
22579;SDS011;11456;47.030;15.396;2023-08-12T13:31:30;4.63;;;2.13;;
22579;SDS011;11456;47.030;15.396;2023-08-12T13:33:57;4.35;;;1.95;;
22579;SDS011;11456;47.030;15.396;2023-08-12T13:36:23;4.10;;;2.00;;
22579;SDS011;11456;47.030;15.396;2023-08-12T13:38:50;2.65;;;1.98;;
22579;SDS011;11456;47.030;15.396;2023-08-12T13:41:17;4.57;;;2.25;;
22579;SDS011;11456;47.030;15.396;2023-08-12T13:43:43;3.45;;;2.30;;
22579;SDS011;11456;47.030;15.396;2023-08-12T13:46:10;4.20;;;1.98;;
22579;SDS011;11456;47.030;15.396;2023-08-12T13:48:37;2.72;;;1.92;;
22579;SDS011;11456;47.030;15.396;2023-08-12T13:51:04;3.38;;;1.75;;
22579;SDS011;11456;47.030;15.396;2023-08-12T13:53:30;11.02;;;1.98;;
22579;SDS011;11456;47.030;15.396;2023-08-12T13:55:57;4.10;;;2.00;;
22579;SDS011;11456;47.030;15.396;2023-08-12T13:58:24;6.10;;;2.03;;
22579;SDS011;11456;47.030;15.396;2023-08-12T14:00:50;6.70;;;2.00;;
22579;SDS011;11456;47.030;15.396;2023-08-12T14:03:17;4.57;;;1.80;;
22579;SDS011;11456;47.030;15.396;2023-08-12T14:05:44;7.25;;;2.20;;
22579;SDS011;11456;47.030;15.396;2023-08-12T14:08:11;3.53;;;1.77;;
22579;SDS011;11456;47.030;15.396;2023-08-12T14:10:38;2.13;;;1.58;;
22579;SDS011;11456;47.030;15.396;2023-08-12T14:13:05;2.42;;;1.70;;
22579;SDS011;11456;47.030;15.396;2023-08-12T14:15:33;5.22;;;1.98;;
22579;SDS011;11456;47.030;15.396;2023-08-12T14:18:00;2.53;;;1.77;;
22579;SDS011;11456;47.030;15.396;2023-08-12T14:20:27;2.85;;;2.00;;
22579;SDS011;11456;47.030;15.396;2023-08-12T14:22:53;5.95;;;2.25;;
22579;SDS011;11456;47.030;15.396;2023-08-12T14:25:20;5.43;;;1.85;;
22579;SDS011;11456;47.030;15.396;2023-08-12T14:27:47;3.63;;;1.88;;
22579;SDS011;11456;47.030;15.396;2023-08-12T14:30:14;2.47;;;1.60;;
22579;SDS011;11456;47.030;15.396;2023-08-12T14:32:40;2.20;;;1.90;;
22579;SDS011;11456;47.030;15.396;2023-08-12T14:35:07;3.05;;;2.00;;
22579;SDS011;11456;47.030;15.396;2023-08-12T14:37:34;4.10;;;1.70;;
22579;SDS011;11456;47.030;15.396;2023-08-12T14:40:01;2.53;;;1.60;;
22579;SDS011;11456;47.030;15.396;2023-08-12T14:42:28;2.08;;;1.60;;
22579;SDS011;11456;47.030;15.396;2023-08-12T14:44:55;1.88;;;1.73;;